sensor_id;sensor_type;location;lat;lon;timestamp;P1;durP1;ratioP1;P2;durP2;ratioP2
8592;SDS011;4334;49.982;8.398;2024-02-28T00:00:22;14.20;;;8.50;;
8592;SDS011;4334;49.982;8.398;2024-02-28T00:02:49;16.70;;;8.93;;
8592;SDS011;4334;49.982;8.398;2024-02-28T00:05:16;15.87;;;8.43;;
8592;SDS011;4334;49.982;8.398;2024-02-28T00:07:44;15.13;;;8.63;;
8592;SDS011;4334;49.982;8.398;2024-02-28T00:10:12;15.87;;;8.23;;
8592;SDS011;4334;49.982;8.398;2024-02-28T00:12:39;14.80;;;8.47;;
8592;SDS011;4334;49.982;8.398;2024-02-28T00:15:06;15.73;;;8.80;;
8592;SDS011;4334;49.982;8.398;2024-02-28T00:17:37;16.37;;;8.80;;
8592;SDS011;4334;49.982;8.398;2024-02-28T00:20:05;13.90;;;7.73;;
8592;SDS011;4334;49.982;8.398;2024-02-28T00:22:32;18.37;;;8.90;;
8592;SDS011;4334;49.982;8.398;2024-02-28T00:25:00;16.13;;;8.87;;
8592;SDS011;4334;49.982;8.398;2024-02-28T00:27:27;17.80;;;9.57;;
8592;SDS011;4334;49.982;8.398;2024-02-28T00:29:53;15.23;;;8.70;;
8592;SDS011;4334;49.982;8.398;2024-02-28T00:32:20;17.77;;;9.83;;
8592;SDS011;4334;49.982;8.398;2024-02-28T00:34:47;16.53;;;9.40;;
8592;SDS011;4334;49.982;8.398;2024-02-28T00:37:14;16.93;;;9.73;;
8592;SDS011;4334;49.982;8.398;2024-02-28T00:39:43;18.13;;;9.53;;
8592;SDS011;4334;49.982;8.398;2024-02-28T00:42:12;19.70;;;9.53;;
8592;SDS011;4334;49.982;8.398;2024-02-28T00:44:38;20.03;;;9.77;;
8592;SDS011;4334;49.982;8.398;2024-02-28T00:47:07;18.50;;;9.97;;
8592;SDS011;4334;49.982;8.398;2024-02-28T00:49:34;19.70;;;10.07;;
8592;SDS011;4334;49.982;8.398;2024-02-28T00:52:01;15.77;;;9.03;;
8592;SDS011;4334;49.982;8.398;2024-02-28T00:54:27;19.70;;;9.17;;
8592;SDS011;4334;49.982;8.398;2024-02-28T00:56:54;19.27;;;10.03;;
8592;SDS011;4334;49.982;8.398;2024-02-28T00:59:22;16.93;;;9.87;;
8592;SDS011;4334;49.982;8.398;2024-02-28T01:01:48;22.47;;;9.80;;
8592;SDS011;4334;49.982;8.398;2024-02-28T01:04:15;16.87;;;9.17;;
8592;SDS011;4334;49.982;8.398;2024-02-28T01:06:42;17.83;;;9.57;;
8592;SDS011;4334;49.982;8.398;2024-02-28T01:09:08;18.20;;;9.03;;
8592;SDS011;4334;49.982;8.398;2024-02-28T01:11:35;19.07;;;9.37;;
8592;SDS011;4334;49.982;8.398;2024-02-28T01:14:02;17.63;;;9.80;;
8592;SDS011;4334;49.982;8.398;2024-02-28T01:16:30;16.20;;;8.73;;
8592;SDS011;4334;49.982;8.398;2024-02-28T01:18:56;16.93;;;9.47;;
8592;SDS011;4334;49.982;8.398;2024-02-28T01:21:23;19.33;;;10.47;;
8592;SDS011;4334;49.982;8.398;2024-02-28T01:23:50;16.77;;;9.07;;
8592;SDS011;4334;49.982;8.398;2024-02-28T01:26:17;16.17;;;8.47;;
8592;SDS011;4334;49.982;8.398;2024-02-28T01:28:45;15.27;;;9.57;;
8592;SDS011;4334;49.982;8.398;2024-02-28T01:31:11;20.97;;;10.17;;
8592;SDS011;4334;49.982;8.398;2024-02-28T01:33:39;16.90;;;9.00;;
8592;SDS011;4334;49.982;8.398;2024-02-28T01:36:06;17.17;;;8.90;;
8592;SDS011;4334;49.982;8.398;2024-02-28T01:38:33;21.07;;;9.40;;
8592;SDS011;4334;49.982;8.398;2024-02-28T01:41:00;20.03;;;9.27;;
8592;SDS011;4334;49.982;8.398;2024-02-28T01:43:27;16.47;;;9.20;;
8592;SDS011;4334;49.982;8.398;2024-02-28T01:45:53;18.57;;;9.17;;
8592;SDS011;4334;49.982;8.398;2024-02-28T01:48:20;21.07;;;10.03;;
8592;SDS011;4334;49.982;8.398;2024-02-28T01:50:48;16.57;;;9.20;;
8592;SDS011;4334;49.982;8.398;2024-02-28T01:53:15;15.40;;;8.83;;
8592;SDS011;4334;49.982;8.398;2024-02-28T01:55:42;22.63;;;9.27;;
8592;SDS011;4334;49.982;8.398;2024-02-28T01:58:08;21.73;;;9.53;;
8592;SDS011;4334;49.982;8.398;2024-02-28T02:00:36;17.00;;;9.10;;
8592;SDS011;4334;49.982;8.398;2024-02-28T02:03:03;18.93;;;9.33;;
8592;SDS011;4334;49.982;8.398;2024-02-28T02:05:30;17.70;;;8.57;;
8592;SDS011;4334;49.982;8.398;2024-02-28T02:08:01;19.27;;;9.60;;
8592;SDS011;4334;49.982;8.398;2024-02-28T02:10:28;18.20;;;8.33;;
8592;SDS011;4334;49.982;8.398;2024-02-28T02:12:54;21.03;;;10.50;;
8592;SDS011;4334;49.982;8.398;2024-02-28T02:15:21;21.30;;;10.23;;
8592;SDS011;4334;49.982;8.398;2024-02-28T02:17:48;23.37;;;10.60;;
8592;SDS011;4334;49.982;8.398;2024-02-28T02:20:14;24.77;;;12.23;;
8592;SDS011;4334;49.982;8.398;2024-02-28T02:22:42;25.53;;;11.50;;
8592;SDS011;4334;49.982;8.398;2024-02-28T02:25:09;25.77;;;11.67;;
8592;SDS011;4334;49.982;8.398;2024-02-28T02:27:36;26.23;;;13.00;;
8592;SDS011;4334;49.982;8.398;2024-02-28T02:30:03;28.50;;;12.57;;
8592;SDS011;4334;49.982;8.398;2024-02-28T02:32:31;30.17;;;13.27;;
8592;SDS011;4334;49.982;8.398;2024-02-28T02:34:57;29.67;;;14.60;;
8592;SDS011;4334;49.982;8.398;2024-02-28T02:37:24;33.53;;;15.07;;
8592;SDS011;4334;49.982;8.398;2024-02-28T02:39:52;33.23;;;16.10;;
8592;SDS011;4334;49.982;8.398;2024-02-28T02:42:19;28.87;;;13.37;;
8592;SDS011;4334;49.982;8.398;2024-02-28T02:44:46;34.93;;;14.83;;
8592;SDS011;4334;49.982;8.398;2024-02-28T02:47:12;37.30;;;15.20;;
8592;SDS011;4334;49.982;8.398;2024-02-28T02:49:39;27.87;;;14.63;;
8592;SDS011;4334;49.982;8.398;2024-02-28T02:52:06;31.87;;;14.03;;
8592;SDS011;4334;49.982;8.398;2024-02-28T02:54:32;31.10;;;16.00;;
8592;SDS011;4334;49.982;8.398;2024-02-28T02:57:00;32.70;;;14.37;;
8592;SDS011;4334;49.982;8.398;2024-02-28T02:59:27;34.63;;;14.97;;
8592;SDS011;4334;49.982;8.398;2024-02-28T03:01:54;32.47;;;13.90;;
8592;SDS011;4334;49.982;8.398;2024-02-28T03:04:21;33.90;;;13.93;;
8592;SDS011;4334;49.982;8.398;2024-02-28T03:06:47;32.23;;;13.40;;
8592;SDS011;4334;49.982;8.398;2024-02-28T03:09:14;34.03;;;14.30;;
8592;SDS011;4334;49.982;8.398;2024-02-28T03:11:41;31.50;;;14.87;;
8592;SDS011;4334;49.982;8.398;2024-02-28T03:14:09;30.33;;;15.37;;
8592;SDS011;4334;49.982;8.398;2024-02-28T03:16:40;33.00;;;15.10;;
8592;SDS011;4334;49.982;8.398;2024-02-28T03:19:07;30.07;;;14.33;;
8592;SDS011;4334;49.982;8.398;2024-02-28T03:21:34;31.50;;;13.90;;
8592;SDS011;4334;49.982;8.398;2024-02-28T03:24:01;33.80;;;14.23;;
8592;SDS011;4334;49.982;8.398;2024-02-28T03:26:28;33.83;;;14.07;;
8592;SDS011;4334;49.982;8.398;2024-02-28T03:28:54;33.30;;;13.80;;
8592;SDS011;4334;49.982;8.398;2024-02-28T03:31:22;27.80;;;14.17;;
8592;SDS011;4334;49.982;8.398;2024-02-28T03:33:49;29.53;;;13.87;;
8592;SDS011;4334;49.982;8.398;2024-02-28T03:36:16;32.50;;;13.33;;
8592;SDS011;4334;49.982;8.398;2024-02-28T03:38:42;30.70;;;14.30;;
8592;SDS011;4334;49.982;8.398;2024-02-28T03:41:09;28.90;;;13.27;;
8592;SDS011;4334;49.982;8.398;2024-02-28T03:43:36;32.57;;;14.10;;
8592;SDS011;4334;49.982;8.398;2024-02-28T03:46:03;33.27;;;12.83;;
8592;SDS011;4334;49.982;8.398;2024-02-28T03:48:30;25.27;;;11.80;;
8592;SDS011;4334;49.982;8.398;2024-02-28T03:50:57;30.83;;;13.77;;
8592;SDS011;4334;49.982;8.398;2024-02-28T03:53:24;28.03;;;12.87;;
8592;SDS011;4334;49.982;8.398;2024-02-28T03:55:51;33.47;;;12.83;;
8592;SDS011;4334;49.982;8.398;2024-02-28T03:58:18;31.60;;;13.83;;
8592;SDS011;4334;49.982;8.398;2024-02-28T04:00:44;27.57;;;12.83;;
8592;SDS011;4334;49.982;8.398;2024-02-28T04:03:11;28.43;;;12.77;;
8592;SDS011;4334;49.982;8.398;2024-02-28T04:05:40;34.90;;;13.27;;
8592;SDS011;4334;49.982;8.398;2024-02-28T04:08:07;29.87;;;12.30;;
8592;SDS011;4334;49.982;8.398;2024-02-28T04:10:34;29.37;;;12.77;;
8592;SDS011;4334;49.982;8.398;2024-02-28T04:13:00;36.77;;;14.40;;
8592;SDS011;4334;49.982;8.398;2024-02-28T04:15:27;39.80;;;14.97;;
8592;SDS011;4334;49.982;8.398;2024-02-28T04:17:55;32.77;;;14.20;;
8592;SDS011;4334;49.982;8.398;2024-02-28T04:20:21;28.13;;;12.23;;
8592;SDS011;4334;49.982;8.398;2024-02-28T04:22:49;36.13;;;15.50;;
8592;SDS011;4334;49.982;8.398;2024-02-28T04:25:16;31.70;;;13.23;;
8592;SDS011;4334;49.982;8.398;2024-02-28T04:27:43;31.00;;;13.77;;
8592;SDS011;4334;49.982;8.398;2024-02-28T04:30:11;37.90;;;14.07;;
8592;SDS011;4334;49.982;8.398;2024-02-28T04:32:38;35.87;;;12.13;;
8592;SDS011;4334;49.982;8.398;2024-02-28T04:35:05;35.27;;;14.87;;
8592;SDS011;4334;49.982;8.398;2024-02-28T04:37:32;35.00;;;14.63;;
8592;SDS011;4334;49.982;8.398;2024-02-28T04:40:02;33.10;;;13.30;;
8592;SDS011;4334;49.982;8.398;2024-02-28T04:42:29;33.60;;;13.50;;
8592;SDS011;4334;49.982;8.398;2024-02-28T04:44:56;32.93;;;13.93;;
8592;SDS011;4334;49.982;8.398;2024-02-28T04:47:23;39.20;;;15.20;;
8592;SDS011;4334;49.982;8.398;2024-02-28T04:49:49;35.10;;;14.67;;
8592;SDS011;4334;49.982;8.398;2024-02-28T04:52:16;28.33;;;12.70;;
8592;SDS011;4334;49.982;8.398;2024-02-28T04:54:43;41.43;;;13.93;;
8592;SDS011;4334;49.982;8.398;2024-02-28T04:57:11;34.70;;;14.10;;
8592;SDS011;4334;49.982;8.398;2024-02-28T04:59:38;38.47;;;13.97;;
8592;SDS011;4334;49.982;8.398;2024-02-28T05:02:04;31.50;;;12.70;;
8592;SDS011;4334;49.982;8.398;2024-02-28T05:04:31;35.20;;;14.43;;
8592;SDS011;4334;49.982;8.398;2024-02-28T05:06:58;35.90;;;12.87;;
8592;SDS011;4334;49.982;8.398;2024-02-28T05:09:25;35.77;;;13.97;;
8592;SDS011;4334;49.982;8.398;2024-02-28T05:11:51;35.73;;;14.03;;
8592;SDS011;4334;49.982;8.398;2024-02-28T05:14:19;36.47;;;14.03;;
8592;SDS011;4334;49.982;8.398;2024-02-28T05:16:46;30.00;;;11.93;;
8592;SDS011;4334;49.982;8.398;2024-02-28T05:19:13;32.57;;;12.23;;
8592;SDS011;4334;49.982;8.398;2024-02-28T05:21:42;35.03;;;13.07;;
8592;SDS011;4334;49.982;8.398;2024-02-28T05:24:09;34.63;;;11.23;;
8592;SDS011;4334;49.982;8.398;2024-02-28T05:26:36;33.43;;;12.70;;
8592;SDS011;4334;49.982;8.398;2024-02-28T05:29:04;33.67;;;13.03;;
8592;SDS011;4334;49.982;8.398;2024-02-28T05:31:32;31.40;;;12.87;;
8592;SDS011;4334;49.982;8.398;2024-02-28T05:34:00;32.97;;;13.07;;
8592;SDS011;4334;49.982;8.398;2024-02-28T05:36:27;35.90;;;12.70;;
8592;SDS011;4334;49.982;8.398;2024-02-28T05:38:55;35.73;;;12.77;;
8592;SDS011;4334;49.982;8.398;2024-02-28T05:41:23;35.03;;;12.10;;
8592;SDS011;4334;49.982;8.398;2024-02-28T05:43:51;33.77;;;11.77;;
8592;SDS011;4334;49.982;8.398;2024-02-28T05:46:18;31.37;;;11.00;;
8592;SDS011;4334;49.982;8.398;2024-02-28T05:48:46;38.17;;;12.93;;
8592;SDS011;4334;49.982;8.398;2024-02-28T05:51:13;28.67;;;11.53;;
8592;SDS011;4334;49.982;8.398;2024-02-28T05:53:40;31.43;;;11.87;;
8592;SDS011;4334;49.982;8.398;2024-02-28T05:56:08;32.87;;;12.43;;
8592;SDS011;4334;49.982;8.398;2024-02-28T05:58:39;40.30;;;12.10;;
8592;SDS011;4334;49.982;8.398;2024-02-28T06:01:06;36.03;;;12.23;;
8592;SDS011;4334;49.982;8.398;2024-02-28T06:03:34;38.87;;;12.57;;
8592;SDS011;4334;49.982;8.398;2024-02-28T06:06:02;34.83;;;12.67;;
8592;SDS011;4334;49.982;8.398;2024-02-28T06:08:31;27.90;;;10.40;;
8592;SDS011;4334;49.982;8.398;2024-02-28T06:10:58;32.83;;;11.80;;
8592;SDS011;4334;49.982;8.398;2024-02-28T06:13:24;30.70;;;11.67;;
8592;SDS011;4334;49.982;8.398;2024-02-28T06:15:51;26.13;;;11.33;;
8592;SDS011;4334;49.982;8.398;2024-02-28T06:18:18;31.43;;;11.00;;
8592;SDS011;4334;49.982;8.398;2024-02-28T06:20:44;40.30;;;11.67;;
8592;SDS011;4334;49.982;8.398;2024-02-28T06:23:13;35.27;;;12.87;;
8592;SDS011;4334;49.982;8.398;2024-02-28T06:25:39;38.97;;;12.23;;
8592;SDS011;4334;49.982;8.398;2024-02-28T06:28:06;39.87;;;13.50;;
8592;SDS011;4334;49.982;8.398;2024-02-28T06:30:33;26.13;;;11.20;;
8592;SDS011;4334;49.982;8.398;2024-02-28T06:33:00;37.67;;;11.47;;
8592;SDS011;4334;49.982;8.398;2024-02-28T06:35:26;35.03;;;11.90;;
8592;SDS011;4334;49.982;8.398;2024-02-28T06:37:53;40.23;;;12.83;;
8592;SDS011;4334;49.982;8.398;2024-02-28T06:40:21;36.17;;;13.17;;
8592;SDS011;4334;49.982;8.398;2024-02-28T06:42:48;32.23;;;12.43;;
8592;SDS011;4334;49.982;8.398;2024-02-28T06:45:14;37.47;;;12.77;;
8592;SDS011;4334;49.982;8.398;2024-02-28T06:47:42;32.63;;;12.73;;
8592;SDS011;4334;49.982;8.398;2024-02-28T06:50:10;35.07;;;12.13;;
8592;SDS011;4334;49.982;8.398;2024-02-28T06:52:37;32.27;;;11.70;;
8592;SDS011;4334;49.982;8.398;2024-02-28T06:55:03;35.30;;;13.27;;
8592;SDS011;4334;49.982;8.398;2024-02-28T06:57:36;32.60;;;12.90;;
8592;SDS011;4334;49.982;8.398;2024-02-28T07:00:04;32.37;;;12.60;;
8592;SDS011;4334;49.982;8.398;2024-02-28T07:02:33;37.70;;;13.37;;
8592;SDS011;4334;49.982;8.398;2024-02-28T07:05:00;45.77;;;14.77;;
8592;SDS011;4334;49.982;8.398;2024-02-28T07:07:26;46.43;;;12.50;;
8592;SDS011;4334;49.982;8.398;2024-02-28T07:09:53;34.20;;;12.83;;
8592;SDS011;4334;49.982;8.398;2024-02-28T07:12:20;36.40;;;12.73;;
8592;SDS011;4334;49.982;8.398;2024-02-28T07:14:48;32.20;;;11.70;;
8592;SDS011;4334;49.982;8.398;2024-02-28T07:17:14;36.80;;;12.77;;
8592;SDS011;4334;49.982;8.398;2024-02-28T07:19:41;37.33;;;13.37;;
8592;SDS011;4334;49.982;8.398;2024-02-28T07:22:08;30.37;;;12.77;;
8592;SDS011;4334;49.982;8.398;2024-02-28T07:24:35;33.57;;;12.73;;
8592;SDS011;4334;49.982;8.398;2024-02-28T07:27:02;26.53;;;11.97;;
8592;SDS011;4334;49.982;8.398;2024-02-28T07:29:28;30.47;;;12.47;;
8592;SDS011;4334;49.982;8.398;2024-02-28T07:31:56;26.17;;;11.60;;
8592;SDS011;4334;49.982;8.398;2024-02-28T07:34:23;28.93;;;12.23;;
8592;SDS011;4334;49.982;8.398;2024-02-28T07:36:50;27.37;;;11.63;;
8592;SDS011;4334;49.982;8.398;2024-02-28T07:39:16;24.27;;;11.57;;
8592;SDS011;4334;49.982;8.398;2024-02-28T07:41:43;25.33;;;10.13;;
8592;SDS011;4334;49.982;8.398;2024-02-28T07:44:10;24.97;;;11.00;;
8592;SDS011;4334;49.982;8.398;2024-02-28T07:46:37;25.27;;;10.53;;
8592;SDS011;4334;49.982;8.398;2024-02-28T07:49:05;26.70;;;11.23;;
8592;SDS011;4334;49.982;8.398;2024-02-28T07:51:31;24.93;;;11.63;;
8592;SDS011;4334;49.982;8.398;2024-02-28T07:53:58;24.20;;;10.83;;
8592;SDS011;4334;49.982;8.398;2024-02-28T07:56:25;25.90;;;11.70;;
8592;SDS011;4334;49.982;8.398;2024-02-28T07:58:52;26.40;;;11.57;;
8592;SDS011;4334;49.982;8.398;2024-02-28T08:01:19;25.07;;;10.87;;
8592;SDS011;4334;49.982;8.398;2024-02-28T08:03:47;22.23;;;11.07;;
8592;SDS011;4334;49.982;8.398;2024-02-28T08:06:15;24.00;;;11.07;;
8592;SDS011;4334;49.982;8.398;2024-02-28T08:08:43;24.23;;;11.53;;
8592;SDS011;4334;49.982;8.398;2024-02-28T08:11:11;24.67;;;11.80;;
8592;SDS011;4334;49.982;8.398;2024-02-28T08:13:38;22.50;;;11.03;;
8592;SDS011;4334;49.982;8.398;2024-02-28T08:16:05;23.47;;;11.13;;
8592;SDS011;4334;49.982;8.398;2024-02-28T08:18:34;21.70;;;11.03;;
8592;SDS011;4334;49.982;8.398;2024-02-28T08:21:01;21.03;;;11.07;;
8592;SDS011;4334;49.982;8.398;2024-02-28T08:23:30;20.03;;;11.03;;
8592;SDS011;4334;49.982;8.398;2024-02-28T08:25:57;20.90;;;11.30;;
8592;SDS011;4334;49.982;8.398;2024-02-28T08:28:24;26.03;;;11.53;;
8592;SDS011;4334;49.982;8.398;2024-02-28T08:30:51;20.27;;;10.93;;
8592;SDS011;4334;49.982;8.398;2024-02-28T08:33:17;21.17;;;10.83;;
8592;SDS011;4334;49.982;8.398;2024-02-28T08:35:44;17.60;;;10.70;;
8592;SDS011;4334;49.982;8.398;2024-02-28T08:38:11;18.50;;;10.20;;
8592;SDS011;4334;49.982;8.398;2024-02-28T08:40:39;19.13;;;10.60;;
8592;SDS011;4334;49.982;8.398;2024-02-28T08:43:06;19.87;;;10.90;;
8592;SDS011;4334;49.982;8.398;2024-02-28T08:45:33;17.90;;;9.83;;
8592;SDS011;4334;49.982;8.398;2024-02-28T08:47:59;19.90;;;11.30;;
8592;SDS011;4334;49.982;8.398;2024-02-28T08:50:27;17.73;;;10.20;;
8592;SDS011;4334;49.982;8.398;2024-02-28T08:52:54;20.13;;;11.37;;
8592;SDS011;4334;49.982;8.398;2024-02-28T08:55:20;19.93;;;11.13;;
8592;SDS011;4334;49.982;8.398;2024-02-28T08:57:48;22.00;;;10.80;;
8592;SDS011;4334;49.982;8.398;2024-02-28T09:00:15;19.40;;;11.53;;
8592;SDS011;4334;49.982;8.398;2024-02-28T09:02:42;17.87;;;10.47;;
8592;SDS011;4334;49.982;8.398;2024-02-28T09:05:09;18.37;;;10.53;;
8592;SDS011;4334;49.982;8.398;2024-02-28T09:07:36;17.83;;;11.20;;
8592;SDS011;4334;49.982;8.398;2024-02-28T09:10:03;19.77;;;10.87;;
8592;SDS011;4334;49.982;8.398;2024-02-28T09:12:30;19.30;;;11.77;;
8592;SDS011;4334;49.982;8.398;2024-02-28T09:14:59;17.70;;;10.30;;
8592;SDS011;4334;49.982;8.398;2024-02-28T09:17:25;18.60;;;10.63;;
8592;SDS011;4334;49.982;8.398;2024-02-28T09:19:52;17.93;;;10.63;;
8592;SDS011;4334;49.982;8.398;2024-02-28T09:22:19;16.90;;;10.07;;
8592;SDS011;4334;49.982;8.398;2024-02-28T09:24:46;17.37;;;10.30;;
8592;SDS011;4334;49.982;8.398;2024-02-28T09:27:13;18.00;;;10.77;;
8592;SDS011;4334;49.982;8.398;2024-02-28T09:29:40;18.83;;;10.57;;
8592;SDS011;4334;49.982;8.398;2024-02-28T09:32:08;19.07;;;10.37;;
8592;SDS011;4334;49.982;8.398;2024-02-28T09:34:35;14.67;;;9.80;;
8592;SDS011;4334;49.982;8.398;2024-02-28T09:37:03;18.50;;;10.47;;
8592;SDS011;4334;49.982;8.398;2024-02-28T09:39:30;16.10;;;9.07;;
8592;SDS011;4334;49.982;8.398;2024-02-28T09:41:56;15.77;;;9.80;;
8592;SDS011;4334;49.982;8.398;2024-02-28T09:44:23;16.60;;;10.30;;
8592;SDS011;4334;49.982;8.398;2024-02-28T09:46:50;16.97;;;10.63;;
8592;SDS011;4334;49.982;8.398;2024-02-28T09:49:19;19.53;;;10.00;;
8592;SDS011;4334;49.982;8.398;2024-02-28T09:51:47;15.07;;;9.13;;
8592;SDS011;4334;49.982;8.398;2024-02-28T09:54:15;17.07;;;9.27;;
8592;SDS011;4334;49.982;8.398;2024-02-28T09:56:42;14.07;;;9.03;;
8592;SDS011;4334;49.982;8.398;2024-02-28T09:59:09;14.90;;;9.10;;
8592;SDS011;4334;49.982;8.398;2024-02-28T10:01:37;15.90;;;9.57;;
8592;SDS011;4334;49.982;8.398;2024-02-28T10:04:08;15.40;;;9.40;;
8592;SDS011;4334;49.982;8.398;2024-02-28T10:06:39;16.03;;;9.27;;
8592;SDS011;4334;49.982;8.398;2024-02-28T10:09:05;15.37;;;9.57;;
8592;SDS011;4334;49.982;8.398;2024-02-28T10:11:32;14.90;;;9.13;;
8592;SDS011;4334;49.982;8.398;2024-02-28T10:14:00;18.10;;;10.63;;
8592;SDS011;4334;49.982;8.398;2024-02-28T10:16:27;14.03;;;8.83;;
8592;SDS011;4334;49.982;8.398;2024-02-28T10:18:55;15.27;;;9.00;;
8592;SDS011;4334;49.982;8.398;2024-02-28T10:21:21;13.63;;;8.87;;
8592;SDS011;4334;49.982;8.398;2024-02-28T10:23:50;15.03;;;8.50;;
8592;SDS011;4334;49.982;8.398;2024-02-28T10:26:17;15.93;;;9.97;;
8592;SDS011;4334;49.982;8.398;2024-02-28T10:28:43;12.70;;;8.80;;
8592;SDS011;4334;49.982;8.398;2024-02-28T10:31:10;16.03;;;9.60;;
8592;SDS011;4334;49.982;8.398;2024-02-28T10:33:37;16.60;;;9.60;;
8592;SDS011;4334;49.982;8.398;2024-02-28T10:36:04;16.33;;;9.67;;
8592;SDS011;4334;49.982;8.398;2024-02-28T10:38:32;14.57;;;9.13;;
8592;SDS011;4334;49.982;8.398;2024-02-28T10:41:00;14.30;;;8.70;;
8592;SDS011;4334;49.982;8.398;2024-02-28T10:43:27;14.27;;;9.97;;
8592;SDS011;4334;49.982;8.398;2024-02-28T10:45:55;16.13;;;8.83;;
8592;SDS011;4334;49.982;8.398;2024-02-28T10:48:24;14.60;;;8.67;;
8592;SDS011;4334;49.982;8.398;2024-02-28T10:50:51;14.97;;;9.60;;
8592;SDS011;4334;49.982;8.398;2024-02-28T10:53:20;15.17;;;9.23;;
8592;SDS011;4334;49.982;8.398;2024-02-28T10:55:49;14.60;;;9.67;;
8592;SDS011;4334;49.982;8.398;2024-02-28T10:58:17;16.60;;;9.97;;
8592;SDS011;4334;49.982;8.398;2024-02-28T11:00:46;14.63;;;9.63;;
8592;SDS011;4334;49.982;8.398;2024-02-28T11:03:15;14.95;;;9.63;;
8592;SDS011;4334;49.982;8.398;2024-02-28T11:05:43;17.00;;;9.60;;
8592;SDS011;4334;49.982;8.398;2024-02-28T11:08:11;15.48;;;9.90;;
8592;SDS011;4334;49.982;8.398;2024-02-28T11:10:47;16.35;;;9.85;;
8592;SDS011;4334;49.982;8.398;2024-02-28T11:13:25;14.32;;;9.70;;
8592;SDS011;4334;49.982;8.398;2024-02-28T11:15:53;18.13;;;10.65;;
8592;SDS011;4334;49.982;8.398;2024-02-28T11:18:21;16.15;;;10.13;;
8592;SDS011;4334;49.982;8.398;2024-02-28T11:20:48;16.58;;;10.15;;
8592;SDS011;4334;49.982;8.398;2024-02-28T11:23:16;15.15;;;9.73;;
8592;SDS011;4334;49.982;8.398;2024-02-28T11:25:43;15.07;;;9.38;;
8592;SDS011;4334;49.982;8.398;2024-02-28T11:28:10;14.50;;;9.98;;
8592;SDS011;4334;49.982;8.398;2024-02-28T11:30:38;17.35;;;10.15;;
8592;SDS011;4334;49.982;8.398;2024-02-28T11:33:06;17.02;;;10.68;;
8592;SDS011;4334;49.982;8.398;2024-02-28T11:35:34;19.58;;;10.45;;
8592;SDS011;4334;49.982;8.398;2024-02-28T11:38:00;16.88;;;10.95;;
8592;SDS011;4334;49.982;8.398;2024-02-28T11:40:27;14.68;;;8.75;;
8592;SDS011;4334;49.982;8.398;2024-02-28T11:42:54;14.90;;;9.48;;
8592;SDS011;4334;49.982;8.398;2024-02-28T11:45:21;17.75;;;9.75;;
8592;SDS011;4334;49.982;8.398;2024-02-28T11:47:49;14.63;;;9.30;;
8592;SDS011;4334;49.982;8.398;2024-02-28T11:50:16;14.48;;;10.15;;
8592;SDS011;4334;49.982;8.398;2024-02-28T11:52:44;13.43;;;8.50;;
8592;SDS011;4334;49.982;8.398;2024-02-28T11:55:10;15.68;;;10.15;;
8592;SDS011;4334;49.982;8.398;2024-02-28T11:57:37;14.43;;;9.23;;
8592;SDS011;4334;49.982;8.398;2024-02-28T12:00:05;14.30;;;8.38;;
8592;SDS011;4334;49.982;8.398;2024-02-28T12:02:34;15.88;;;8.60;;
8592;SDS011;4334;49.982;8.398;2024-02-28T12:05:02;10.90;;;8.07;;
8592;SDS011;4334;49.982;8.398;2024-02-28T12:07:30;12.13;;;7.63;;
8592;SDS011;4334;49.982;8.398;2024-02-28T12:09:57;11.88;;;8.40;;
8592;SDS011;4334;49.982;8.398;2024-02-28T12:12:23;13.15;;;8.48;;
8592;SDS011;4334;49.982;8.398;2024-02-28T12:14:50;12.15;;;8.20;;
8592;SDS011;4334;49.982;8.398;2024-02-28T12:17:17;12.88;;;8.52;;
8592;SDS011;4334;49.982;8.398;2024-02-28T12:19:44;12.85;;;8.13;;
8592;SDS011;4334;49.982;8.398;2024-02-28T12:22:12;12.32;;;8.05;;
8592;SDS011;4334;49.982;8.398;2024-02-28T12:24:38;13.40;;;8.27;;
8592;SDS011;4334;49.982;8.398;2024-02-28T12:27:05;14.10;;;8.82;;
8592;SDS011;4334;49.982;8.398;2024-02-28T12:29:32;11.50;;;7.82;;
8592;SDS011;4334;49.982;8.398;2024-02-28T12:31:58;12.05;;;8.15;;
8592;SDS011;4334;49.982;8.398;2024-02-28T12:34:25;10.68;;;7.15;;
8592;SDS011;4334;49.982;8.398;2024-02-28T12:36:52;11.25;;;7.60;;
8592;SDS011;4334;49.982;8.398;2024-02-28T12:39:20;9.88;;;7.38;;
8592;SDS011;4334;49.982;8.398;2024-02-28T12:41:47;9.50;;;6.82;;
8592;SDS011;4334;49.982;8.398;2024-02-28T12:44:14;12.07;;;7.40;;
8592;SDS011;4334;49.982;8.398;2024-02-28T12:46:41;10.90;;;7.25;;
8592;SDS011;4334;49.982;8.398;2024-02-28T12:49:07;12.63;;;8.30;;
8592;SDS011;4334;49.982;8.398;2024-02-28T12:51:38;11.90;;;8.07;;
8592;SDS011;4334;49.982;8.398;2024-02-28T12:54:06;13.40;;;8.00;;
8592;SDS011;4334;49.982;8.398;2024-02-28T12:56:35;11.23;;;7.75;;
8592;SDS011;4334;49.982;8.398;2024-02-28T12:59:02;11.25;;;7.30;;
8592;SDS011;4334;49.982;8.398;2024-02-28T13:01:29;12.10;;;8.50;;
8592;SDS011;4334;49.982;8.398;2024-02-28T13:03:55;13.38;;;8.18;;
8592;SDS011;4334;49.982;8.398;2024-02-28T13:06:22;10.65;;;7.35;;
8592;SDS011;4334;49.982;8.398;2024-02-28T13:08:49;10.73;;;7.18;;
8592;SDS011;4334;49.982;8.398;2024-02-28T13:11:17;11.88;;;8.07;;
8592;SDS011;4334;49.982;8.398;2024-02-28T13:13:46;12.30;;;8.45;;
8592;SDS011;4334;49.982;8.398;2024-02-28T13:16:14;12.82;;;8.02;;
8592;SDS011;4334;49.982;8.398;2024-02-28T13:18:41;9.40;;;7.03;;
8592;SDS011;4334;49.982;8.398;2024-02-28T13:21:07;9.00;;;6.50;;
8592;SDS011;4334;49.982;8.398;2024-02-28T13:23:35;9.73;;;6.90;;
8592;SDS011;4334;49.982;8.398;2024-02-28T13:26:02;11.18;;;7.40;;
8592;SDS011;4334;49.982;8.398;2024-02-28T13:28:29;12.65;;;6.82;;
8592;SDS011;4334;49.982;8.398;2024-02-28T13:30:57;10.65;;;7.00;;
8592;SDS011;4334;49.982;8.398;2024-02-28T13:33:25;9.75;;;6.68;;
8592;SDS011;4334;49.982;8.398;2024-02-28T13:35:52;10.10;;;6.68;;
8592;SDS011;4334;49.982;8.398;2024-02-28T13:38:19;12.55;;;7.40;;
8592;SDS011;4334;49.982;8.398;2024-02-28T13:40:46;8.63;;;5.90;;
8592;SDS011;4334;49.982;8.398;2024-02-28T13:43:13;11.75;;;6.45;;
8592;SDS011;4334;49.982;8.398;2024-02-28T13:45:40;10.68;;;7.00;;
8592;SDS011;4334;49.982;8.398;2024-02-28T13:48:15;10.43;;;7.00;;
8592;SDS011;4334;49.982;8.398;2024-02-28T13:50:45;10.25;;;6.88;;
8592;SDS011;4334;49.982;8.398;2024-02-28T13:53:12;10.88;;;6.80;;
8592;SDS011;4334;49.982;8.398;2024-02-28T13:55:40;9.32;;;6.47;;
8592;SDS011;4334;49.982;8.398;2024-02-28T13:58:07;9.80;;;6.68;;
8592;SDS011;4334;49.982;8.398;2024-02-28T14:00:35;9.88;;;6.68;;
8592;SDS011;4334;49.982;8.398;2024-02-28T14:03:03;9.32;;;6.90;;
8592;SDS011;4334;49.982;8.398;2024-02-28T14:05:32;9.27;;;6.65;;
8592;SDS011;4334;49.982;8.398;2024-02-28T14:07:59;9.77;;;6.10;;
8592;SDS011;4334;49.982;8.398;2024-02-28T14:10:28;9.48;;;6.40;;
8592;SDS011;4334;49.982;8.398;2024-02-28T14:12:55;9.05;;;6.60;;
8592;SDS011;4334;49.982;8.398;2024-02-28T14:15:23;10.55;;;7.07;;
8592;SDS011;4334;49.982;8.398;2024-02-28T14:17:50;9.13;;;5.63;;
8592;SDS011;4334;49.982;8.398;2024-02-28T14:20:17;9.07;;;5.97;;
8592;SDS011;4334;49.982;8.398;2024-02-28T14:22:45;8.20;;;5.68;;
8592;SDS011;4334;49.982;8.398;2024-02-28T14:25:13;7.80;;;5.60;;
8592;SDS011;4334;49.982;8.398;2024-02-28T14:27:41;8.50;;;5.95;;
8592;SDS011;4334;49.982;8.398;2024-02-28T14:30:10;7.57;;;5.70;;
8592;SDS011;4334;49.982;8.398;2024-02-28T14:32:38;7.90;;;5.43;;
8592;SDS011;4334;49.982;8.398;2024-02-28T14:35:06;8.02;;;5.32;;
8592;SDS011;4334;49.982;8.398;2024-02-28T14:37:33;7.57;;;5.13;;
8592;SDS011;4334;49.982;8.398;2024-02-28T14:40:02;8.55;;;4.88;;
8592;SDS011;4334;49.982;8.398;2024-02-28T14:42:31;6.13;;;4.70;;
8592;SDS011;4334;49.982;8.398;2024-02-28T14:44:58;7.07;;;4.95;;
8592;SDS011;4334;49.982;8.398;2024-02-28T14:47:25;7.60;;;4.77;;
8592;SDS011;4334;49.982;8.398;2024-02-28T14:49:52;5.50;;;3.53;;
8592;SDS011;4334;49.982;8.398;2024-02-28T14:52:18;5.00;;;3.70;;
8592;SDS011;4334;49.982;8.398;2024-02-28T14:54:45;4.57;;;3.60;;